createdAt,value
2022-08-03T00:00:35.449Z,3.10
2022-08-03T00:01:37.862Z,3.22
2022-08-03T00:02:40.408Z,3.75
2022-08-03T00:03:42.033Z,2.80
2022-08-03T00:04:44.677Z,3.45
2022-08-03T00:06:04.801Z,3.55
2022-08-03T00:07:07.834Z,3.28
2022-08-03T00:08:09.425Z,3.47
2022-08-03T00:09:12.537Z,3.45
2022-08-03T00:10:14.334Z,3.10
2022-08-03T00:11:16.977Z,3.22
2022-08-03T00:12:18.711Z,3.10
2022-08-03T00:13:21.523Z,4.68
2022-08-03T00:14:23.126Z,3.58
2022-08-03T00:15:27.325Z,3.10
2022-08-03T00:16:28.934Z,3.00
2022-08-03T00:17:31.528Z,3.28
2022-08-03T00:18:53.140Z,3.00
2022-08-03T00:19:55.652Z,2.95
2022-08-03T00:20:57.232Z,3.65
2022-08-03T00:21:59.763Z,3.03
2022-08-03T00:23:01.526Z,3.40
2022-08-03T00:24:04.366Z,3.28
2022-08-03T00:25:06.816Z,3.15
2022-08-03T00:26:09.561Z,2.83
2022-08-03T00:27:11.869Z,4.10
2022-08-03T00:28:19.182Z,3.00
2022-08-03T00:29:20.756Z,3.25
2022-08-03T00:30:23.311Z,3.55
2022-08-03T00:31:52.176Z,3.22
2022-08-03T00:32:55.537Z,2.88
2022-08-03T00:33:58.855Z,2.60
2022-08-03T00:35:08.095Z,3.53
2022-08-03T00:36:11.898Z,3.00
2022-08-03T00:37:14.449Z,2.65
2022-08-03T00:38:18.056Z,3.13
2022-08-03T00:39:20.598Z,3.00
2022-08-03T00:40:22.340Z,3.15
2022-08-03T00:41:25.089Z,2.67
2022-08-03T00:42:27.390Z,3.08
2022-08-03T00:43:31.225Z,3.00
2022-08-03T00:44:39.533Z,3.00
2022-08-03T00:45:43.301Z,3.00
2022-08-03T00:46:46.216Z,2.90
2022-08-03T00:47:48.889Z,2.90
2022-08-03T00:48:51.119Z,3.08
2022-08-03T00:49:53.698Z,3.08
2022-08-03T00:50:55.291Z,3.03
2022-08-03T00:51:57.858Z,3.17
2022-08-03T00:52:59.792Z,2.80
2022-08-03T00:54:02.340Z,3.03
2022-08-03T00:55:04.309Z,3.13
2022-08-03T00:56:06.891Z,3.08
2022-08-03T00:57:08.836Z,3.03
2022-08-03T00:58:13.089Z,3.10
2022-08-03T00:59:15.851Z,2.85
2022-08-03T01:00:20.177Z,2.85
2022-08-03T01:01:21.783Z,2.88
2022-08-03T01:02:25.687Z,3.00
2022-08-03T01:03:27.328Z,3.00
2022-08-03T01:04:29.869Z,2.90
2022-08-03T01:05:34.711Z,2.75
2022-08-03T01:06:43.482Z,2.55
2022-08-03T01:07:56.966Z,2.45
2022-08-03T01:09:04.479Z,2.40
2022-08-03T01:10:15.294Z,2.50
2022-08-03T01:11:20.667Z,3.03
2022-08-03T01:12:25.348Z,2.65
2022-08-03T01:14:01.226Z,2.70
2022-08-03T01:14:59.579Z,2.90
2022-08-03T01:16:09.551Z,3.20
2022-08-03T01:17:13.732Z,2.50
2022-08-03T01:18:21.530Z,2.90
2022-08-03T01:19:35.967Z,2.83
2022-08-03T01:20:42.147Z,2.63
2022-08-03T01:21:59.982Z,2.92
2022-08-03T01:23:11.786Z,2.70
2022-08-03T01:24:23.821Z,3.08
2022-08-03T01:25:36.318Z,2.75
2022-08-03T01:27:02.603Z,2.90
2022-08-03T01:28:19.522Z,2.67
2022-08-03T01:29:40.655Z,2.50
2022-08-03T01:30:44.047Z,2.60
2022-08-03T01:32:59.363Z,2.65
2022-08-03T01:33:16.975Z,3.05
2022-08-03T01:34:21.474Z,2.92
2022-08-03T01:35:32.055Z,2.50
2022-08-03T01:36:39.645Z,2.65
2022-08-03T01:37:45.032Z,2.90
2022-08-03T01:38:49.660Z,3.03
2022-08-03T01:39:52.960Z,2.88
2022-08-03T01:40:57.959Z,2.65
2022-08-03T01:42:06.036Z,2.58
2022-08-03T01:43:11.126Z,3.08
2022-08-03T01:44:29.888Z,2.63
2022-08-03T01:45:35.565Z,3.25
2022-08-03T01:46:38.785Z,2.78
2022-08-03T01:47:42.265Z,3.20
2022-08-03T01:48:45.330Z,3.40
2022-08-03T01:49:49.284Z,3.08
2022-08-03T01:50:51.807Z,3.25
2022-08-03T01:51:58.471Z,2.70
2022-08-03T01:53:07.824Z,2.97
2022-08-03T01:54:11.672Z,3.13
2022-08-03T01:55:17.648Z,3.05
2022-08-03T01:56:21.282Z,3.30
2022-08-03T01:57:23.531Z,2.50
2022-08-03T01:58:26.695Z,2.55
2022-08-03T01:59:29.215Z,3.45
2022-08-03T02:00:34.690Z,2.67
2022-08-03T02:02:15.399Z,3.42
2022-08-03T02:03:00.175Z,2.90
2022-08-03T02:04:03.107Z,3.20
2022-08-03T02:05:10.904Z,4.00
2022-08-03T02:07:01.743Z,2.92
2022-08-03T02:07:37.543Z,3.22
2022-08-03T02:08:39.474Z,3.13
2022-08-03T02:09:42.822Z,3.38
2022-08-03T02:10:46.108Z,3.40
2022-08-03T02:11:49.252Z,2.75
2022-08-03T02:12:51.320Z,3.28
2022-08-03T02:13:54.694Z,2.90
2022-08-03T02:15:00.944Z,3.15
2022-08-03T02:16:04.751Z,3.00
2022-08-03T02:17:08.258Z,3.55
2022-08-03T02:18:10.703Z,3.05
2022-08-03T02:19:14.504Z,3.20
2022-08-03T02:20:16.486Z,3.28
2022-08-03T02:21:55.645Z,3.10
2022-08-03T02:22:42.019Z,3.30
2022-08-03T02:23:44.652Z,4.13
2022-08-03T02:24:46.305Z,3.15
2022-08-03T02:25:55.291Z,3.40
2022-08-03T02:26:57.354Z,3.55
2022-08-03T02:28:07.101Z,3.55
2022-08-03T02:29:14.106Z,3.45
2022-08-03T02:30:16.981Z,3.38
2022-08-03T02:31:23.605Z,3.40
2022-08-03T02:32:31.252Z,4.07
2022-08-03T02:33:36.213Z,3.40
2022-08-03T02:34:39.009Z,3.40
2022-08-03T02:35:41.895Z,3.10
2022-08-03T02:36:47.276Z,3.13
2022-08-03T02:37:53.260Z,3.65
2022-08-03T02:38:56.306Z,3.40
2022-08-03T02:40:05.490Z,3.50
2022-08-03T02:41:09.424Z,3.20
2022-08-03T02:42:13.801Z,3.55
2022-08-03T02:43:20.523Z,3.45
2022-08-03T02:44:26.125Z,3.85
2022-08-03T02:45:28.928Z,3.78
2022-08-03T02:46:35.253Z,3.60
2022-08-03T02:47:54.118Z,3.88
2022-08-03T02:48:58.664Z,3.88
2022-08-03T02:50:01.800Z,3.28
2022-08-03T02:51:05.255Z,3.50
2022-08-03T02:52:13.204Z,3.58
2022-08-03T02:53:18.965Z,3.78
2022-08-03T02:54:23.370Z,3.67
2022-08-03T02:55:27.622Z,3.83
2022-08-03T02:56:30.181Z,3.67
2022-08-03T02:57:34.707Z,3.58
2022-08-03T02:58:37.578Z,3.83
2022-08-03T02:59:41.082Z,3.97
2022-08-03T03:00:44.449Z,3.53
2022-08-03T03:01:48.738Z,3.78
2022-08-03T03:02:50.956Z,3.83
2022-08-03T03:03:55.226Z,4.05
2022-08-03T03:05:52.873Z,3.58
2022-08-03T03:06:20.916Z,4.20
2022-08-03T03:07:25.658Z,3.70
2022-08-03T03:08:32.007Z,3.55
2022-08-03T03:09:41.828Z,3.60
2022-08-03T03:10:45.894Z,3.78
2022-08-03T03:11:49.647Z,4.38
2022-08-03T03:12:56.623Z,3.85
2022-08-03T03:13:59.587Z,3.67
2022-08-03T03:15:01.347Z,3.88
2022-08-03T03:16:05.736Z,4.18
2022-08-03T03:17:09.564Z,3.80
2022-08-03T03:18:12.951Z,4.10
2022-08-03T03:19:15.625Z,3.65
2022-08-03T03:20:29.055Z,4.10
2022-08-03T03:21:32.998Z,3.35
2022-08-03T03:22:35.417Z,3.25
2022-08-03T03:23:39.872Z,3.80
2022-08-03T03:24:42.194Z,3.88
2022-08-03T03:25:44.742Z,3.90
2022-08-03T03:26:46.794Z,3.67
2022-08-03T03:27:50.913Z,3.42
2022-08-03T03:28:52.696Z,3.90
2022-08-03T03:29:55.897Z,4.07
2022-08-03T03:30:57.945Z,4.03
2022-08-03T03:32:02.750Z,3.92
2022-08-03T03:33:05.824Z,3.50
2022-08-03T03:34:08.584Z,3.55
2022-08-03T03:35:13.264Z,3.85
2022-08-03T03:36:16.053Z,3.60
2022-08-03T03:37:17.645Z,3.90
2022-08-03T03:38:20.772Z,4.15
2022-08-03T03:39:22.413Z,3.90
2022-08-03T03:40:25.009Z,4.03
2022-08-03T03:41:26.670Z,3.25
2022-08-03T03:42:29.269Z,3.55
2022-08-03T03:43:30.892Z,3.67
2022-08-03T03:44:33.465Z,3.30
2022-08-03T03:45:35.829Z,4.22
2022-08-03T03:46:39.044Z,3.30
2022-08-03T03:47:41.051Z,3.70
2022-08-03T03:48:45.266Z,4.15
2022-08-03T03:49:46.924Z,3.42
2022-08-03T03:50:51.497Z,3.72
2022-08-03T03:51:53.866Z,3.85
2022-08-03T03:52:56.478Z,4.03
2022-08-03T03:53:59.477Z,3.45
2022-08-03T03:55:02.083Z,4.18
2022-08-03T03:56:04.231Z,3.70
2022-08-03T03:57:06.767Z,3.60
2022-08-03T03:58:08.608Z,3.88
2022-08-03T03:59:11.438Z,4.00
2022-08-03T04:00:14.600Z,3.90
2022-08-03T04:01:17.331Z,3.45
2022-08-03T04:02:18.965Z,3.92
2022-08-03T04:03:21.622Z,3.88
2022-08-03T04:04:43.030Z,4.20
2022-08-03T04:06:03.866Z,4.10
2022-08-03T04:07:24.342Z,4.35
2022-08-03T04:08:44.610Z,4.43
2022-08-03T04:10:14.758Z,4.38
2022-08-03T04:11:20.553Z,4.20
2022-08-03T04:12:31.699Z,4.53
2022-08-03T04:13:38.246Z,4.18
2022-08-03T04:14:40.494Z,4.13
2022-08-03T04:15:43.429Z,4.45
2022-08-03T04:16:47.378Z,4.25
2022-08-03T04:17:51.176Z,4.60
2022-08-03T04:18:55.462Z,5.07
2022-08-03T04:20:00.770Z,8.93
2022-08-03T04:21:05.414Z,11.90
2022-08-03T04:22:11.573Z,10.52
2022-08-03T04:23:15.785Z,10.80
2022-08-03T04:24:19.803Z,10.18
2022-08-03T04:25:25.768Z,7.85
2022-08-03T04:26:30.987Z,5.72
2022-08-03T04:27:35.051Z,5.32
2022-08-03T04:28:38.885Z,4.43
2022-08-03T04:29:48.239Z,4.72
2022-08-03T04:30:52.413Z,4.80
2022-08-03T04:31:54.644Z,4.00
2022-08-03T04:32:57.725Z,4.45
2022-08-03T04:33:59.605Z,4.25
2022-08-03T04:35:03.956Z,4.00
2022-08-03T04:36:07.651Z,3.72
2022-08-03T04:37:12.774Z,4.70
2022-08-03T04:38:15.973Z,3.90
2022-08-03T04:39:21.242Z,4.25
2022-08-03T04:40:29.778Z,4.28
2022-08-03T04:41:33.467Z,3.75
2022-08-03T04:42:55.830Z,3.97
2022-08-03T04:44:00.124Z,3.42
2022-08-03T04:45:04.117Z,3.83
2022-08-03T04:46:07.481Z,3.72
2022-08-03T04:47:09.118Z,3.75
2022-08-03T04:48:12.115Z,4.20
2022-08-03T04:49:13.902Z,3.45
2022-08-03T04:50:21.425Z,4.03
2022-08-03T04:51:23.566Z,3.92
2022-08-03T04:52:26.253Z,3.28
2022-08-03T04:53:27.858Z,3.67
2022-08-03T04:54:30.511Z,3.47
2022-08-03T04:55:33.318Z,3.13
2022-08-03T04:56:35.914Z,3.58
2022-08-03T04:57:37.540Z,3.33
2022-08-03T04:58:40.189Z,3.63
2022-08-03T04:59:41.842Z,3.30
2022-08-03T05:00:45.492Z,3.58
2022-08-03T05:01:47.359Z,3.20
2022-08-03T05:02:50.102Z,3.10
2022-08-03T05:03:51.864Z,3.00
2022-08-03T05:04:54.492Z,2.88
2022-08-03T05:06:09.606Z,3.30
2022-08-03T05:07:14.240Z,3.25
2022-08-03T05:08:15.846Z,3.20
2022-08-03T05:09:45.056Z,3.03
2022-08-03T05:10:40.631Z,3.33
2022-08-03T05:11:43.273Z,3.50
2022-08-03T05:12:45.624Z,3.22
2022-08-03T05:13:48.818Z,2.67
2022-08-03T05:14:50.441Z,3.10
2022-08-03T05:15:53.117Z,3.83
2022-08-03T05:16:54.666Z,3.10
2022-08-03T05:17:57.183Z,3.47
2022-08-03T05:18:58.776Z,3.00
2022-08-03T05:20:01.384Z,3.38
2022-08-03T05:21:05.899Z,3.47
2022-08-03T05:22:07.453Z,2.90
2022-08-03T05:23:09.997Z,3.30
2022-08-03T05:24:11.866Z,3.90
2022-08-03T05:25:19.775Z,3.10
2022-08-03T05:26:22.256Z,3.63
2022-08-03T05:27:24.795Z,3.22
2022-08-03T05:28:26.361Z,3.20
2022-08-03T05:29:28.892Z,3.05
2022-08-03T05:30:33.873Z,3.22
2022-08-03T05:31:37.171Z,3.35
2022-08-03T05:32:38.724Z,2.78
2022-08-03T05:33:41.250Z,3.53
2022-08-03T05:34:43.316Z,3.00
2022-08-03T05:35:57.286Z,3.10
2022-08-03T05:37:08.260Z,3.40
2022-08-03T05:38:11.021Z,3.67
2022-08-03T05:39:14.374Z,3.15
2022-08-03T05:40:15.924Z,3.10
2022-08-03T05:41:22.580Z,3.22
2022-08-03T05:42:25.664Z,3.58
2022-08-03T05:43:28.339Z,3.70
2022-08-03T05:44:30.939Z,3.72
2022-08-03T05:45:34.146Z,3.08
2022-08-03T05:46:35.784Z,3.53
2022-08-03T05:47:38.309Z,3.83
2022-08-03T05:48:40.050Z,3.95
2022-08-03T05:49:42.781Z,3.00
2022-08-03T05:50:44.405Z,3.60
2022-08-03T05:51:47.151Z,3.45
2022-08-03T05:53:02.937Z,3.60
2022-08-03T05:54:05.524Z,3.47
2022-08-03T05:55:07.821Z,3.85
2022-08-03T05:56:14.428Z,4.05
2022-08-03T05:57:17.153Z,2.58
2022-08-03T05:58:19.956Z,3.13
2022-08-03T05:59:37.630Z,3.78
2022-08-03T06:00:41.166Z,3.50
2022-08-03T06:01:42.817Z,3.50
2022-08-03T06:02:45.521Z,3.30
2022-08-03T06:03:47.216Z,2.63
2022-08-03T06:04:49.766Z,3.67
2022-08-03T06:05:58.336Z,2.90
2022-08-03T06:07:03.492Z,3.65
2022-08-03T06:08:06.597Z,3.17
2022-08-03T06:09:10.428Z,3.67
2022-08-03T06:10:37.209Z,2.60
2022-08-03T06:11:34.768Z,3.67
2022-08-03T06:12:36.439Z,2.80
2022-08-03T06:13:39.656Z,3.50
2022-08-03T06:14:41.261Z,2.88
2022-08-03T06:15:44.396Z,2.92
2022-08-03T06:16:46.005Z,2.70
2022-08-03T06:17:49.239Z,2.60
2022-08-03T06:18:51.797Z,2.80
2022-08-03T06:19:53.557Z,3.10
2022-08-03T06:20:56.246Z,2.35
2022-08-03T06:21:58.873Z,3.05
2022-08-03T06:23:02.770Z,2.47
2022-08-03T06:24:07.292Z,3.40
2022-08-03T06:25:12.825Z,2.75
2022-08-03T06:26:15.682Z,2.97
2022-08-03T06:27:17.397Z,2.78
2022-08-03T06:28:51.768Z,2.80
2022-08-03T06:29:42.584Z,3.22
2022-08-03T06:30:44.754Z,2.60
2022-08-03T06:31:47.361Z,3.00
2022-08-03T06:32:51.901Z,2.50
2022-08-03T06:34:32.434Z,2.50
2022-08-03T06:35:17.588Z,2.35
2022-08-03T06:36:19.172Z,3.30
2022-08-03T06:37:21.760Z,2.60
2022-08-03T06:38:23.411Z,2.88
2022-08-03T06:39:27.334Z,3.38
2022-08-03T06:40:29.785Z,2.78
2022-08-03T06:41:38.090Z,2.40
2022-08-03T06:42:47.537Z,3.53
2022-08-03T06:44:03.985Z,2.65
2022-08-03T06:45:08.970Z,2.30
2022-08-03T06:46:13.651Z,2.60
2022-08-03T06:47:16.267Z,2.90
2022-08-03T06:48:17.932Z,2.45
2022-08-03T06:49:20.567Z,2.65
2022-08-03T06:50:26.066Z,2.63
2022-08-03T06:52:03.000Z,2.90
2022-08-03T06:52:51.813Z,2.88
2022-08-03T06:53:53.473Z,2.97
2022-08-03T06:54:57.503Z,2.22
2022-08-03T06:55:59.205Z,2.80
2022-08-03T06:57:01.872Z,3.03
2022-08-03T06:58:03.865Z,2.83
2022-08-03T06:59:06.438Z,2.58
2022-08-03T07:00:12.535Z,3.28
2022-08-03T07:01:14.481Z,2.92
2022-08-03T07:02:21.434Z,3.67
2022-08-03T07:03:23.420Z,2.70
2022-08-03T07:04:26.054Z,2.67
2022-08-03T07:05:28.820Z,2.63
2022-08-03T07:06:31.548Z,2.58
2022-08-03T07:07:34.317Z,2.90
2022-08-03T07:08:35.928Z,2.33
2022-08-03T07:09:38.528Z,2.60
2022-08-03T07:10:44.788Z,2.50
2022-08-03T07:11:47.366Z,2.40
2022-08-03T07:12:56.062Z,2.22
2022-08-03T07:14:04.914Z,2.60
2022-08-03T07:15:08.211Z,2.60
2022-08-03T07:16:23.366Z,2.47
2022-08-03T07:17:25.182Z,2.47
2022-08-03T07:18:30.103Z,2.40
2022-08-03T07:19:31.803Z,2.90
2022-08-03T07:20:34.367Z,3.10
2022-08-03T07:21:35.936Z,2.70
2022-08-03T07:22:38.939Z,2.95
2022-08-03T07:23:40.569Z,2.80
2022-08-03T07:24:43.202Z,3.22
2022-08-03T07:25:46.164Z,3.05
2022-08-03T07:26:48.741Z,2.90
2022-08-03T07:27:51.860Z,2.40
2022-08-03T07:28:54.461Z,2.72
2022-08-03T07:29:57.568Z,2.78
2022-08-03T07:31:00.440Z,2.58
2022-08-03T07:32:02.109Z,2.95
2022-08-03T07:33:04.722Z,2.10
2022-08-03T07:34:06.369Z,3.03
2022-08-03T07:35:24.265Z,2.45
2022-08-03T07:36:28.012Z,2.40
2022-08-03T07:37:31.503Z,2.38
2022-08-03T07:38:34.958Z,2.85
2022-08-03T07:39:37.478Z,2.65
2022-08-03T07:40:43.175Z,2.70
2022-08-03T07:41:51.459Z,2.60
2022-08-03T07:42:53.539Z,2.58
2022-08-03T07:43:56.190Z,2.60
2022-08-03T07:44:58.808Z,2.53
2022-08-03T07:46:01.368Z,2.83
2022-08-03T07:47:03.334Z,2.08
2022-08-03T07:48:11.642Z,2.38
2022-08-03T07:49:14.028Z,2.33
2022-08-03T07:50:16.633Z,2.25
2022-08-03T07:51:19.357Z,2.50
2022-08-03T07:52:39.783Z,2.05
2022-08-03T07:53:47.230Z,2.47
2022-08-03T07:54:49.551Z,2.35
2022-08-03T07:55:52.162Z,2.85
2022-08-03T07:56:55.070Z,2.65
2022-08-03T07:58:05.234Z,2.47
2022-08-03T07:59:06.810Z,2.33
2022-08-03T08:00:14.832Z,2.40
2022-08-03T08:01:19.419Z,2.28
2022-08-03T08:02:21.111Z,2.10
2022-08-03T08:03:24.298Z,2.22
2022-08-03T08:04:25.855Z,2.10
2022-08-03T08:05:29.515Z,2.38
2022-08-03T08:06:32.609Z,2.33
2022-08-03T08:07:35.460Z,2.17
2022-08-03T08:08:37.885Z,2.10
2022-08-03T08:09:40.493Z,2.40
2022-08-03T08:10:43.030Z,2.33
2022-08-03T08:12:01.505Z,2.17
2022-08-03T08:13:04.837Z,2.58
2022-08-03T08:14:07.362Z,2.10
2022-08-03T08:15:10.324Z,2.10
2022-08-03T08:16:13.423Z,2.33
2022-08-03T08:17:15.037Z,2.05
2022-08-03T08:18:17.634Z,2.70
2022-08-03T08:19:19.393Z,3.50
2022-08-03T08:20:30.432Z,4.60
2022-08-03T08:21:53.731Z,4.97
2022-08-03T08:22:56.636Z,4.72
2022-08-03T08:24:00.037Z,2.63
2022-08-03T08:25:04.523Z,3.83
2022-08-03T08:26:07.321Z,3.13
2022-08-03T08:27:11.926Z,3.22
2022-08-03T08:28:29.786Z,3.00
2022-08-03T08:29:35.631Z,3.67
2022-08-03T08:30:50.378Z,2.58
2022-08-03T08:31:51.997Z,3.17
2022-08-03T08:32:54.807Z,2.90
2022-08-03T08:34:04.717Z,2.38
2022-08-03T08:35:08.430Z,2.55
2022-08-03T08:36:15.054Z,2.13
2022-08-03T08:37:17.740Z,2.28
2022-08-03T08:38:19.385Z,2.22
2022-08-03T08:39:21.987Z,2.20
2022-08-03T08:40:24.610Z,2.05
2022-08-03T08:41:32.141Z,2.30
2022-08-03T08:42:38.453Z,2.10
2022-08-03T08:43:41.550Z,2.80
2022-08-03T08:44:43.221Z,2.60
2022-08-03T08:45:56.986Z,2.10
2022-08-03T08:47:00.220Z,2.55
2022-08-03T08:48:08.075Z,2.20
2022-08-03T08:49:10.838Z,2.17
2022-08-03T08:50:27.461Z,2.85
2022-08-03T08:51:50.506Z,2.50
2022-08-03T08:52:56.078Z,2.25
2022-08-03T08:53:59.106Z,2.38
2022-08-03T08:55:03.836Z,2.10
2022-08-03T08:56:06.650Z,2.30
2022-08-03T08:57:33.019Z,2.22
2022-08-03T08:58:36.362Z,2.40
2022-08-03T08:59:47.733Z,1.80
2022-08-03T09:00:51.765Z,2.28
2022-08-03T09:01:57.982Z,2.10
2022-08-03T09:03:00.913Z,2.00
2022-08-03T09:04:03.723Z,2.17
2022-08-03T09:05:07.624Z,2.15
2022-08-03T09:06:10.582Z,2.63
2022-08-03T09:07:20.141Z,1.98
2022-08-03T09:08:23.750Z,1.80
2022-08-03T09:10:08.322Z,2.72
2022-08-03T09:10:48.064Z,2.05
2022-08-03T09:12:01.192Z,1.98
2022-08-03T09:13:09.043Z,2.15
2022-08-03T09:14:39.166Z,2.15
2022-08-03T09:15:35.626Z,2.08
2022-08-03T09:16:38.281Z,2.10
2022-08-03T09:17:40.874Z,2.05
2022-08-03T09:18:44.010Z,2.55
2022-08-03T09:20:06.945Z,2.20
2022-08-03T09:21:32.540Z,2.70
2022-08-03T09:22:34.917Z,2.10
2022-08-03T09:24:01.642Z,2.83
2022-08-03T09:25:23.878Z,2.10
2022-08-03T09:26:29.318Z,1.98
2022-08-03T09:27:41.915Z,2.13
2022-08-03T09:29:01.304Z,2.00
2022-08-03T09:30:19.149Z,2.38
2022-08-03T09:31:38.186Z,2.30
2022-08-03T09:32:39.781Z,3.00
2022-08-03T09:33:48.029Z,2.17
2022-08-03T09:34:55.250Z,2.13
2022-08-03T09:35:59.454Z,2.45
2022-08-03T09:37:01.990Z,1.90
2022-08-03T09:38:14.967Z,2.38
2022-08-03T09:39:18.571Z,2.28
2022-08-03T09:40:34.446Z,2.25
2022-08-03T09:41:37.158Z,2.30
2022-08-03T09:42:57.058Z,2.50
2022-08-03T09:43:58.980Z,2.10
2022-08-03T09:45:01.863Z,3.22
2022-08-03T09:46:07.305Z,2.00
2022-08-03T09:47:11.294Z,2.05
2022-08-03T09:48:23.822Z,1.90
2022-08-03T09:49:26.483Z,1.88
2022-08-03T09:50:28.138Z,1.90
2022-08-03T09:52:24.724Z,2.08
2022-08-03T09:52:53.249Z,2.20
2022-08-03T09:54:00.312Z,2.38
2022-08-03T09:55:04.073Z,2.05
2022-08-03T09:56:34.189Z,2.28
2022-08-03T09:57:31.794Z,2.08
2022-08-03T09:58:33.378Z,2.17
2022-08-03T09:59:36.014Z,2.28
2022-08-03T10:00:55.406Z,1.90
2022-08-03T10:02:00.569Z,2.38
2022-08-03T10:03:04.713Z,2.25
2022-08-03T10:04:07.271Z,2.05
2022-08-03T10:05:19.567Z,2.50
2022-08-03T10:06:22.292Z,2.08
2022-08-03T10:07:31.306Z,2.10
2022-08-03T10:08:32.892Z,2.05
2022-08-03T10:09:35.700Z,2.53
2022-08-03T10:10:42.929Z,2.05
2022-08-03T10:11:46.942Z,2.30
2022-08-03T10:12:49.175Z,2.38
2022-08-03T10:13:52.296Z,2.35
2022-08-03T10:15:04.184Z,2.22
2022-08-03T10:16:22.695Z,2.40
2022-08-03T10:17:29.346Z,2.33
2022-08-03T10:18:31.060Z,2.17
2022-08-03T10:19:34.136Z,2.10
2022-08-03T10:20:38.210Z,2.00
2022-08-03T10:21:42.395Z,2.20
2022-08-03T10:22:45.069Z,2.10
2022-08-03T10:23:46.846Z,2.60
2022-08-03T10:24:54.733Z,2.22
2022-08-03T10:26:03.648Z,2.08
2022-08-03T10:27:08.169Z,1.95
2022-08-03T10:28:14.348Z,2.30
2022-08-03T10:29:21.592Z,2.40
2022-08-03T10:30:26.196Z,2.72
2022-08-03T10:31:33.547Z,2.00
2022-08-03T10:32:41.949Z,2.33
2022-08-03T10:33:51.039Z,1.92
2022-08-03T10:35:00.308Z,1.95
2022-08-03T10:36:07.205Z,2.05
2022-08-03T10:37:12.427Z,1.90
2022-08-03T10:38:19.697Z,2.10
2022-08-03T10:39:24.373Z,2.50
2022-08-03T10:41:51.699Z,2.00
2022-08-03T10:42:56.631Z,2.30
2022-08-03T10:44:03.816Z,2.05
2022-08-03T10:45:07.966Z,1.80
2022-08-03T10:46:10.579Z,2.03
2022-08-03T10:47:12.641Z,2.05
2022-08-03T10:48:16.962Z,2.00
2022-08-03T10:49:34.788Z,1.80
2022-08-03T10:50:38.893Z,2.20
2022-08-03T10:51:40.942Z,1.73
2022-08-03T10:52:58.816Z,1.83
2022-08-03T10:54:03.948Z,2.05
2022-08-03T10:55:49.121Z,2.10
2022-08-03T10:57:23.086Z,2.10
2022-08-03T10:58:56.819Z,1.90
2022-08-03T11:00:00.410Z,2.53
2022-08-03T11:01:03.198Z,2.13
2022-08-03T11:02:08.238Z,1.98
2022-08-03T11:03:14.343Z,1.85
2022-08-03T11:04:18.432Z,1.95
2022-08-03T11:05:28.181Z,2.28
2022-08-03T11:06:37.293Z,1.77
2022-08-03T11:07:39.476Z,2.28
2022-08-03T11:08:42.129Z,2.05
2022-08-03T11:09:44.781Z,2.08
2022-08-03T11:10:47.660Z,2.40
2022-08-03T11:11:51.373Z,2.58
2022-08-03T11:13:06.851Z,2.05
2022-08-03T11:14:11.699Z,2.20
2022-08-03T11:15:13.606Z,2.33
2022-08-03T11:16:21.976Z,2.13
2022-08-03T11:17:25.030Z,1.80
2022-08-03T11:18:26.999Z,2.47
2022-08-03T11:19:56.888Z,2.45
2022-08-03T11:21:01.515Z,2.03
2022-08-03T11:22:04.159Z,2.58
2022-08-03T11:23:06.626Z,1.90
2022-08-03T11:24:09.351Z,1.75
2022-08-03T11:25:54.054Z,2.05
2022-08-03T11:26:34.391Z,2.20
2022-08-03T11:27:35.963Z,1.73
2022-08-03T11:28:39.843Z,1.92
2022-08-03T11:29:57.771Z,2.13
2022-08-03T11:31:49.300Z,2.03
2022-08-03T11:32:56.179Z,2.08
2022-08-03T11:34:04.672Z,2.47
2022-08-03T11:35:12.640Z,1.95
2022-08-03T11:36:16.410Z,2.05
2022-08-03T11:37:34.768Z,2.60
2022-08-03T11:39:23.999Z,2.20
2022-08-03T11:40:38.633Z,2.35
2022-08-03T11:41:42.794Z,1.83
2022-08-03T11:42:51.173Z,1.90
2022-08-03T11:43:52.915Z,2.15
2022-08-03T11:44:56.964Z,2.10
2022-08-03T11:46:01.179Z,2.00
2022-08-03T11:47:02.809Z,2.55
2022-08-03T11:48:15.604Z,2.47
2022-08-03T11:49:23.394Z,2.13
2022-08-03T11:50:26.642Z,1.77
2022-08-03T11:51:30.956Z,2.47
2022-08-03T11:52:35.715Z,2.38
2022-08-03T11:53:42.113Z,2.22
2022-08-03T11:54:44.165Z,2.45
2022-08-03T11:55:48.928Z,2.33
2022-08-03T11:56:50.676Z,2.50
2022-08-03T11:59:16.631Z,2.10
2022-08-03T11:59:21.847Z,2.13
2022-08-03T12:00:30.419Z,2.47
2022-08-03T12:01:33.013Z,2.20
2022-08-03T12:02:35.583Z,2.40
2022-08-03T12:03:38.177Z,2.35
2022-08-03T12:04:50.269Z,2.15
2022-08-03T12:05:54.927Z,2.58
2022-08-03T12:07:00.315Z,2.25
2022-08-03T12:08:06.417Z,2.42
2022-08-03T12:09:16.644Z,2.42
2022-08-03T12:10:18.523Z,2.80
2022-08-03T12:11:21.108Z,2.08
2022-08-03T12:12:22.674Z,2.80
2022-08-03T12:14:33.146Z,2.65
2022-08-03T12:14:52.468Z,2.25
2022-08-03T12:15:57.406Z,2.30
2022-08-03T12:16:59.000Z,2.60
2022-08-03T12:18:02.115Z,2.15
2022-08-03T12:19:06.552Z,2.40
2022-08-03T12:20:10.635Z,2.33
2022-08-03T12:21:14.711Z,2.47
2022-08-03T12:22:16.891Z,2.65
2022-08-03T12:23:21.792Z,2.38
2022-08-03T12:24:23.429Z,2.55
2022-08-03T12:25:39.132Z,2.15
2022-08-03T12:26:52.164Z,2.03
2022-08-03T12:28:28.434Z,2.50
2022-08-03T12:29:32.641Z,2.35
2022-08-03T12:30:34.622Z,2.28
2022-08-03T12:31:37.288Z,2.50
2022-08-03T12:32:39.029Z,2.50
2022-08-03T12:33:59.226Z,2.47
2022-08-03T12:35:02.034Z,2.30
2022-08-03T12:36:08.193Z,2.58
2022-08-03T12:37:20.976Z,2.60
2022-08-03T12:38:25.508Z,2.35
2022-08-03T12:39:30.992Z,2.47
2022-08-03T12:40:32.903Z,2.45
2022-08-03T12:41:37.097Z,2.40
2022-08-03T12:42:40.026Z,2.72
2022-08-03T12:43:51.729Z,2.30
2022-08-03T12:44:54.688Z,2.25
2022-08-03T12:46:10.078Z,2.58
2022-08-03T12:47:12.701Z,4.15
2022-08-03T12:48:15.405Z,2.25
2022-08-03T12:49:19.006Z,2.72
2022-08-03T12:50:25.679Z,2.92
2022-08-03T12:51:28.548Z,2.35
2022-08-03T12:52:44.969Z,2.08
2022-08-03T12:53:53.451Z,2.38
2022-08-03T12:54:57.262Z,2.30
2022-08-03T12:56:05.918Z,2.60
2022-08-03T12:57:15.761Z,2.20
2022-08-03T12:58:29.633Z,2.40
2022-08-03T12:59:35.330Z,2.38
2022-08-03T13:00:55.164Z,2.58
2022-08-03T13:01:58.405Z,2.55
2022-08-03T13:03:38.483Z,2.55
2022-08-03T13:04:28.951Z,2.55
2022-08-03T13:05:43.877Z,2.88
2022-08-03T13:07:02.486Z,2.53
2022-08-03T13:08:18.932Z,2.63
2022-08-03T13:09:20.566Z,2.78
2022-08-03T13:10:31.263Z,2.65
2022-08-03T13:11:57.630Z,2.75
2022-08-03T13:12:58.949Z,2.17
2022-08-03T13:14:02.773Z,2.25
2022-08-03T13:15:06.205Z,2.22
2022-08-03T13:16:07.804Z,2.50
2022-08-03T13:17:10.751Z,2.92
2022-08-03T13:18:12.863Z,3.15
2022-08-03T13:19:19.968Z,2.60
2022-08-03T13:20:21.829Z,3.95
2022-08-03T13:21:29.238Z,4.03
2022-08-03T13:22:30.979Z,4.53
2022-08-03T13:23:34.877Z,4.53
2022-08-03T13:24:36.483Z,4.13
2022-08-03T13:25:39.014Z,3.40
2022-08-03T13:26:57.940Z,4.25
2022-08-03T13:28:11.076Z,3.92
2022-08-03T13:29:16.551Z,3.35
2022-08-03T13:30:29.900Z,3.13
2022-08-03T13:31:33.232Z,2.50
2022-08-03T13:32:35.855Z,3.42
2022-08-03T13:33:39.529Z,2.80
2022-08-03T13:34:41.170Z,3.72
2022-08-03T13:35:43.738Z,3.30
2022-08-03T13:37:08.131Z,2.67
2022-08-03T13:38:07.867Z,2.95
2022-08-03T13:39:11.129Z,2.53
2022-08-03T13:40:16.679Z,2.25
2022-08-03T13:41:19.683Z,2.70
2022-08-03T13:42:34.479Z,2.83
2022-08-03T13:43:37.017Z,2.60
2022-08-03T13:44:38.599Z,2.58
2022-08-03T13:45:42.872Z,3.10
2022-08-03T13:46:47.548Z,2.55
2022-08-03T13:47:50.103Z,3.05
2022-08-03T13:48:51.699Z,2.83
2022-08-03T13:50:01.695Z,2.40
2022-08-03T13:51:11.593Z,2.00
2022-08-03T13:52:23.341Z,2.10
2022-08-03T13:53:25.893Z,2.28
2022-08-03T13:54:29.994Z,2.72
2022-08-03T13:55:32.521Z,2.40
2022-08-03T13:56:34.125Z,2.30
2022-08-03T13:58:03.858Z,2.30
2022-08-03T13:58:58.539Z,2.30
2022-08-03T14:00:01.079Z,2.10
2022-08-03T14:01:02.658Z,2.70
2022-08-03T14:02:05.840Z,2.67
2022-08-03T14:03:14.246Z,2.15
2022-08-03T14:04:22.382Z,2.90
2022-08-03T14:05:24.215Z,2.97
2022-08-03T14:06:26.943Z,2.75
2022-08-03T14:07:28.515Z,3.00
2022-08-03T14:08:31.046Z,1.85
2022-08-03T14:09:33.982Z,2.30
2022-08-03T14:10:37.892Z,2.45
2022-08-03T14:12:07.780Z,2.58
2022-08-03T14:13:02.101Z,2.17
2022-08-03T14:14:03.815Z,2.33
2022-08-03T14:15:10.271Z,2.13
2022-08-03T14:16:13.190Z,2.00
2022-08-03T14:17:18.884Z,1.60
2022-08-03T14:18:27.658Z,2.55
2022-08-03T14:19:30.925Z,1.80
2022-08-03T14:20:38.783Z,1.83
2022-08-03T14:21:52.757Z,2.15
2022-08-03T14:23:08.957Z,2.10
2022-08-03T14:24:11.672Z,1.98
2022-08-03T14:25:14.708Z,1.83
2022-08-03T14:26:20.343Z,2.15
2022-08-03T14:27:22.162Z,1.67
2022-08-03T14:28:25.739Z,1.70
2022-08-03T14:29:27.450Z,1.40
2022-08-03T14:30:30.035Z,1.80
2022-08-03T14:32:11.475Z,2.15
2022-08-03T14:32:56.858Z,1.80
2022-08-03T14:34:03.042Z,2.10
2022-08-03T14:35:05.683Z,2.03
2022-08-03T14:36:08.609Z,1.75
2022-08-03T14:37:11.845Z,1.73
2022-08-03T14:38:13.548Z,2.00
2022-08-03T14:39:16.164Z,1.70
2022-08-03T14:40:20.287Z,2.20
2022-08-03T14:41:21.936Z,2.00